sensor_id;sensor_type;location;lat;lon;timestamp;P1;durP1;ratioP1;P2;durP2;ratioP2
55469;SDS011;41334;47.872;16.384;2022-10-31T00:01:42;5.10;;;3.38;;
55469;SDS011;41334;47.872;16.384;2022-10-31T00:04:45;9.50;;;3.40;;
55469;SDS011;41334;47.872;16.384;2022-10-31T00:07:47;8.48;;;3.75;;
55469;SDS011;41334;47.872;16.384;2022-10-31T00:10:48;7.93;;;3.42;;
55469;SDS011;41334;47.872;16.384;2022-10-31T00:13:50;9.10;;;3.63;;
55469;SDS011;41334;47.872;16.384;2022-10-31T00:16:52;6.55;;;3.20;;
55469;SDS011;41334;47.872;16.384;2022-10-31T00:19:53;4.90;;;2.75;;
55469;SDS011;41334;47.872;16.384;2022-10-31T00:22:58;6.50;;;3.08;;
55469;SDS011;41334;47.872;16.384;2022-10-31T00:26:09;7.65;;;3.10;;
55469;SDS011;41334;47.872;16.384;2022-10-31T00:29:11;5.60;;;3.03;;
55469;SDS011;41334;47.872;16.384;2022-10-31T00:32:14;6.70;;;3.55;;
55469;SDS011;41334;47.872;16.384;2022-10-31T00:35:15;5.35;;;3.03;;
55469;SDS011;41334;47.872;16.384;2022-10-31T00:38:19;8.95;;;4.00;;
55469;SDS011;41334;47.872;16.384;2022-10-31T00:41:20;5.45;;;3.22;;
55469;SDS011;41334;47.872;16.384;2022-10-31T00:44:22;6.15;;;3.33;;
55469;SDS011;41334;47.872;16.384;2022-10-31T00:47:24;5.38;;;3.10;;
55469;SDS011;41334;47.872;16.384;2022-10-31T00:50:25;5.75;;;2.88;;
55469;SDS011;41334;47.872;16.384;2022-10-31T00:53:28;5.57;;;3.25;;
55469;SDS011;41334;47.872;16.384;2022-10-31T00:56:29;4.40;;;2.83;;
55469;SDS011;41334;47.872;16.384;2022-10-31T00:59:32;3.35;;;2.40;;
55469;SDS011;41334;47.872;16.384;2022-10-31T01:02:34;9.30;;;3.47;;
55469;SDS011;41334;47.872;16.384;2022-10-31T01:05:36;5.70;;;2.95;;
55469;SDS011;41334;47.872;16.384;2022-10-31T01:08:37;11.13;;;3.17;;
55469;SDS011;41334;47.872;16.384;2022-10-31T01:11:40;3.40;;;1.77;;
55469;SDS011;41334;47.872;16.384;2022-10-31T01:14:43;5.03;;;2.40;;
55469;SDS011;41334;47.872;16.384;2022-10-31T01:17:46;6.53;;;3.40;;
55469;SDS011;41334;47.872;16.384;2022-10-31T01:20:56;4.82;;;2.83;;
55469;SDS011;41334;47.872;16.384;2022-10-31T01:23:59;4.93;;;2.63;;
55469;SDS011;41334;47.872;16.384;2022-10-31T01:27:03;5.93;;;2.38;;
55469;SDS011;41334;47.872;16.384;2022-10-31T01:30:07;6.18;;;2.30;;
55469;SDS011;41334;47.872;16.384;2022-10-31T01:33:09;4.05;;;2.33;;
55469;SDS011;41334;47.872;16.384;2022-10-31T01:36:12;4.63;;;2.38;;
55469;SDS011;41334;47.872;16.384;2022-10-31T01:39:15;7.15;;;2.72;;
55469;SDS011;41334;47.872;16.384;2022-10-31T01:42:20;4.40;;;2.30;;
55469;SDS011;41334;47.872;16.384;2022-10-31T01:45:22;4.47;;;2.60;;
55469;SDS011;41334;47.872;16.384;2022-10-31T01:48:24;2.80;;;1.63;;
55469;SDS011;41334;47.872;16.384;2022-10-31T01:51:29;4.15;;;2.40;;
55469;SDS011;41334;47.872;16.384;2022-10-31T01:54:32;3.67;;;2.22;;
55469;SDS011;41334;47.872;16.384;2022-10-31T01:57:35;5.32;;;3.20;;
55469;SDS011;41334;47.872;16.384;2022-10-31T02:00:38;6.18;;;2.55;;
55469;SDS011;41334;47.872;16.384;2022-10-31T02:03:40;3.55;;;2.08;;
55469;SDS011;41334;47.872;16.384;2022-10-31T02:06:49;3.90;;;2.38;;
55469;SDS011;41334;47.872;16.384;2022-10-31T02:09:53;5.22;;;2.47;;
55469;SDS011;41334;47.872;16.384;2022-10-31T02:12:55;5.30;;;2.50;;
55469;SDS011;41334;47.872;16.384;2022-10-31T02:15:58;5.10;;;2.75;;
55469;SDS011;41334;47.872;16.384;2022-10-31T02:19:01;4.10;;;2.15;;
55469;SDS011;41334;47.872;16.384;2022-10-31T02:22:05;4.65;;;2.38;;
55469;SDS011;41334;47.872;16.384;2022-10-31T02:34:48;5.50;;;2.47;;
55469;SDS011;41334;47.872;16.384;2022-10-31T02:44:27;4.75;;;2.38;;
55469;SDS011;41334;47.872;16.384;2022-10-31T02:47:32;5.68;;;3.00;;
55469;SDS011;41334;47.872;16.384;2022-10-31T02:50:35;5.57;;;2.38;;
55469;SDS011;41334;47.872;16.384;2022-10-31T02:53:38;4.72;;;2.58;;
55469;SDS011;41334;47.872;16.384;2022-10-31T02:56:41;4.47;;;2.17;;
55469;SDS011;41334;47.872;16.384;2022-10-31T02:59:47;5.35;;;2.28;;
55469;SDS011;41334;47.872;16.384;2022-10-31T03:15:33;4.85;;;2.78;;
55469;SDS011;41334;47.872;16.384;2022-10-31T03:18:39;4.88;;;2.80;;
55469;SDS011;41334;47.872;16.384;2022-10-31T03:21:42;3.63;;;2.20;;
55469;SDS011;41334;47.872;16.384;2022-10-31T03:24:45;3.67;;;2.22;;
55469;SDS011;41334;47.872;16.384;2022-10-31T03:27:49;5.32;;;2.28;;
55469;SDS011;41334;47.872;16.384;2022-10-31T03:30:52;4.82;;;2.53;;
55469;SDS011;41334;47.872;16.384;2022-10-31T03:33:56;12.43;;;3.08;;
55469;SDS011;41334;47.872;16.384;2022-10-31T03:37:03;5.68;;;2.55;;
55469;SDS011;41334;47.872;16.384;2022-10-31T03:40:06;5.10;;;2.95;;
55469;SDS011;41334;47.872;16.384;2022-10-31T03:43:10;4.30;;;2.20;;
55469;SDS011;41334;47.872;16.384;2022-10-31T03:46:15;5.55;;;2.83;;
55469;SDS011;41334;47.872;16.384;2022-10-31T03:49:17;6.15;;;2.70;;
55469;SDS011;41334;47.872;16.384;2022-10-31T03:52:23;4.47;;;2.10;;
55469;SDS011;41334;47.872;16.384;2022-10-31T03:58:42;5.88;;;2.47;;
55469;SDS011;41334;47.872;16.384;2022-10-31T04:01:51;3.40;;;2.05;;
55469;SDS011;41334;47.872;16.384;2022-10-31T04:04:54;3.78;;;2.05;;
55469;SDS011;41334;47.872;16.384;2022-10-31T04:07:57;4.30;;;2.20;;
55469;SDS011;41334;47.872;16.384;2022-10-31T04:10:59;4.20;;;2.33;;
55469;SDS011;41334;47.872;16.384;2022-10-31T04:14:02;3.95;;;1.92;;
55469;SDS011;41334;47.872;16.384;2022-10-31T04:17:11;4.20;;;2.30;;
55469;SDS011;41334;47.872;16.384;2022-10-31T04:23:22;3.40;;;1.75;;
55469;SDS011;41334;47.872;16.384;2022-10-31T04:26:25;5.65;;;2.22;;
55469;SDS011;41334;47.872;16.384;2022-10-31T04:29:26;3.22;;;1.80;;
55469;SDS011;41334;47.872;16.384;2022-10-31T04:32:28;3.40;;;2.03;;
55469;SDS011;41334;47.872;16.384;2022-10-31T04:35:30;4.28;;;1.98;;
55469;SDS011;41334;47.872;16.384;2022-10-31T04:38:32;3.95;;;2.22;;
55469;SDS011;41334;47.872;16.384;2022-10-31T04:41:33;4.40;;;1.90;;
55469;SDS011;41334;47.872;16.384;2022-10-31T04:44:38;5.40;;;2.60;;
55469;SDS011;41334;47.872;16.384;2022-10-31T04:47:39;5.95;;;2.38;;
55469;SDS011;41334;47.872;16.384;2022-10-31T04:50:41;3.50;;;2.15;;
55469;SDS011;41334;47.872;16.384;2022-10-31T04:53:43;3.72;;;2.20;;
55469;SDS011;41334;47.872;16.384;2022-10-31T04:57:23;5.03;;;2.55;;
55469;SDS011;41334;47.872;16.384;2022-10-31T05:00:24;6.07;;;2.45;;
55469;SDS011;41334;47.872;16.384;2022-10-31T05:03:26;3.50;;;1.90;;
55469;SDS011;41334;47.872;16.384;2022-10-31T05:06:28;4.35;;;2.53;;
55469;SDS011;41334;47.872;16.384;2022-10-31T05:09:31;4.07;;;2.30;;
55469;SDS011;41334;47.872;16.384;2022-10-31T05:12:33;3.72;;;2.15;;
55469;SDS011;41334;47.872;16.384;2022-10-31T05:15:55;4.82;;;2.08;;
55469;SDS011;41334;47.872;16.384;2022-10-31T05:19:28;3.50;;;2.08;;
55469;SDS011;41334;47.872;16.384;2022-10-31T05:22:50;9.75;;;2.70;;
55469;SDS011;41334;47.872;16.384;2022-10-31T05:25:52;4.20;;;2.20;;
55469;SDS011;41334;47.872;16.384;2022-10-31T05:28:54;4.85;;;2.45;;
55469;SDS011;41334;47.872;16.384;2022-10-31T05:31:57;4.28;;;2.22;;
55469;SDS011;41334;47.872;16.384;2022-10-31T05:35:18;9.27;;;3.33;;
55469;SDS011;41334;47.872;16.384;2022-10-31T05:38:40;3.45;;;2.13;;
55469;SDS011;41334;47.872;16.384;2022-10-31T05:41:49;7.18;;;2.75;;
55469;SDS011;41334;47.872;16.384;2022-10-31T05:45:00;8.65;;;2.75;;
55469;SDS011;41334;47.872;16.384;2022-10-31T05:48:17;8.18;;;2.70;;
55469;SDS011;41334;47.872;16.384;2022-10-31T05:51:48;5.00;;;2.70;;
55469;SDS011;41334;47.872;16.384;2022-10-31T05:54:49;4.60;;;2.70;;
55469;SDS011;41334;47.872;16.384;2022-10-31T05:57:52;4.03;;;2.40;;
55469;SDS011;41334;47.872;16.384;2022-10-31T06:00:53;6.18;;;2.80;;
55469;SDS011;41334;47.872;16.384;2022-10-31T06:03:55;5.45;;;2.78;;
55469;SDS011;41334;47.872;16.384;2022-10-31T06:06:58;5.65;;;3.15;;
55469;SDS011;41334;47.872;16.384;2022-10-31T06:10:01;5.40;;;3.15;;
55469;SDS011;41334;47.872;16.384;2022-10-31T06:13:03;6.70;;;2.30;;
55469;SDS011;41334;47.872;16.384;2022-10-31T06:16:29;5.35;;;2.75;;
55469;SDS011;41334;47.872;16.384;2022-10-31T06:19:39;5.97;;;2.53;;
55469;SDS011;41334;47.872;16.384;2022-10-31T06:22:42;6.03;;;2.92;;
55469;SDS011;41334;47.872;16.384;2022-10-31T06:25:45;5.25;;;3.13;;
55469;SDS011;41334;47.872;16.384;2022-10-31T06:28:49;4.60;;;2.67;;
55469;SDS011;41334;47.872;16.384;2022-10-31T06:32:03;7.07;;;3.38;;
55469;SDS011;41334;47.872;16.384;2022-10-31T06:35:09;4.25;;;2.47;;
55469;SDS011;41334;47.872;16.384;2022-10-31T06:38:11;8.88;;;3.40;;
55469;SDS011;41334;47.872;16.384;2022-10-31T06:41:15;7.28;;;2.50;;
55469;SDS011;41334;47.872;16.384;2022-10-31T06:44:20;3.85;;;1.85;;
55469;SDS011;41334;47.872;16.384;2022-10-31T06:47:28;3.92;;;2.20;;
55469;SDS011;41334;47.872;16.384;2022-10-31T06:50:29;3.60;;;2.15;;
55469;SDS011;41334;47.872;16.384;2022-10-31T06:53:31;3.78;;;2.03;;
55469;SDS011;41334;47.872;16.384;2022-10-31T06:56:33;3.45;;;2.17;;
55469;SDS011;41334;47.872;16.384;2022-10-31T06:59:37;1.42;;;0.90;;
55469;SDS011;41334;47.872;16.384;2022-10-31T07:02:58;10.32;;;3.47;;
55469;SDS011;41334;47.872;16.384;2022-10-31T07:05:59;5.95;;;2.80;;
55469;SDS011;41334;47.872;16.384;2022-10-31T07:09:02;4.68;;;2.38;;
55469;SDS011;41334;47.872;16.384;2022-10-31T07:12:04;4.75;;;2.60;;
55469;SDS011;41334;47.872;16.384;2022-10-31T07:15:10;3.67;;;1.98;;
55469;SDS011;41334;47.872;16.384;2022-10-31T07:18:12;4.20;;;2.40;;
55469;SDS011;41334;47.872;16.384;2022-10-31T07:21:14;6.63;;;2.53;;
55469;SDS011;41334;47.872;16.384;2022-10-31T07:24:16;5.25;;;2.75;;
55469;SDS011;41334;47.872;16.384;2022-10-31T07:27:17;5.03;;;2.25;;
55469;SDS011;41334;47.872;16.384;2022-10-31T07:30:21;3.65;;;2.20;;
55469;SDS011;41334;47.872;16.384;2022-10-31T07:33:27;5.30;;;2.42;;
55469;SDS011;41334;47.872;16.384;2022-10-31T07:37:01;3.95;;;2.00;;
55469;SDS011;41334;47.872;16.384;2022-10-31T07:40:04;3.33;;;1.95;;
55469;SDS011;41334;47.872;16.384;2022-10-31T07:43:06;6.28;;;2.25;;
55469;SDS011;41334;47.872;16.384;2022-10-31T07:46:36;4.82;;;2.20;;
55469;SDS011;41334;47.872;16.384;2022-10-31T07:49:55;3.50;;;2.13;;
55469;SDS011;41334;47.872;16.384;2022-10-31T07:53:35;4.60;;;2.17;;
55469;SDS011;41334;47.872;16.384;2022-10-31T07:56:47;3.25;;;1.98;;
55469;SDS011;41334;47.872;16.384;2022-10-31T07:59:49;2.67;;;1.75;;
55469;SDS011;41334;47.872;16.384;2022-10-31T08:03:02;5.13;;;2.70;;
55469;SDS011;41334;47.872;16.384;2022-10-31T08:06:30;6.50;;;2.10;;
55469;SDS011;41334;47.872;16.384;2022-10-31T08:09:50;3.08;;;1.80;;
55469;SDS011;41334;47.872;16.384;2022-10-31T08:12:58;4.07;;;2.20;;
55469;SDS011;41334;47.872;16.384;2022-10-31T08:16:00;5.05;;;2.38;;
55469;SDS011;41334;47.872;16.384;2022-10-31T08:19:08;4.03;;;1.83;;
55469;SDS011;41334;47.872;16.384;2022-10-31T08:22:12;7.68;;;2.50;;
55469;SDS011;41334;47.872;16.384;2022-10-31T08:25:14;3.83;;;2.13;;
55469;SDS011;41334;47.872;16.384;2022-10-31T08:28:16;4.95;;;2.47;;
55469;SDS011;41334;47.872;16.384;2022-10-31T08:31:20;4.15;;;2.30;;
55469;SDS011;41334;47.872;16.384;2022-10-31T08:34:22;6.63;;;2.80;;
55469;SDS011;41334;47.872;16.384;2022-10-31T08:37:43;4.28;;;2.33;;
55469;SDS011;41334;47.872;16.384;2022-10-31T08:40:47;5.28;;;2.83;;
55469;SDS011;41334;47.872;16.384;2022-10-31T08:43:49;4.85;;;2.13;;
55469;SDS011;41334;47.872;16.384;2022-10-31T08:46:51;10.98;;;3.15;;
55469;SDS011;41334;47.872;16.384;2022-10-31T08:49:55;6.07;;;2.60;;
55469;SDS011;41334;47.872;16.384;2022-10-31T08:53:04;5.80;;;2.53;;
55469;SDS011;41334;47.872;16.384;2022-10-31T08:56:08;4.57;;;2.30;;
55469;SDS011;41334;47.872;16.384;2022-10-31T08:59:10;3.80;;;2.55;;
55469;SDS011;41334;47.872;16.384;2022-10-31T09:02:28;4.47;;;2.55;;
55469;SDS011;41334;47.872;16.384;2022-10-31T09:05:33;4.70;;;2.42;;
55469;SDS011;41334;47.872;16.384;2022-10-31T09:08:35;4.70;;;2.47;;
55469;SDS011;41334;47.872;16.384;2022-10-31T09:11:37;5.60;;;2.42;;
55469;SDS011;41334;47.872;16.384;2022-10-31T09:14:45;5.30;;;2.30;;
55469;SDS011;41334;47.872;16.384;2022-10-31T09:17:58;4.90;;;2.80;;
55469;SDS011;41334;47.872;16.384;2022-10-31T09:21:04;5.33;;;2.73;;
55469;SDS011;41334;47.872;16.384;2022-10-31T09:24:06;3.97;;;2.38;;
55469;SDS011;41334;47.872;16.384;2022-10-31T09:27:08;3.65;;;2.33;;
55469;SDS011;41334;47.872;16.384;2022-10-31T09:30:14;6.00;;;2.90;;
55469;SDS011;41334;47.872;16.384;2022-10-31T09:33:17;6.55;;;2.85;;
55469;SDS011;41334;47.872;16.384;2022-10-31T09:36:29;4.22;;;2.80;;
55469;SDS011;41334;47.872;16.384;2022-10-31T09:39:31;7.05;;;3.00;;
55469;SDS011;41334;47.872;16.384;2022-10-31T09:46:21;9.13;;;2.90;;
55469;SDS011;41334;47.872;16.384;2022-10-31T09:49:35;6.57;;;3.30;;
55469;SDS011;41334;47.872;16.384;2022-10-31T09:52:40;5.38;;;2.30;;
55469;SDS011;41334;47.872;16.384;2022-10-31T09:55:44;4.50;;;2.60;;
55469;SDS011;41334;47.872;16.384;2022-10-31T09:58:53;5.85;;;2.40;;
55469;SDS011;41334;47.872;16.384;2022-10-31T10:05:19;5.95;;;2.60;;
55469;SDS011;41334;47.872;16.384;2022-10-31T10:08:27;4.85;;;2.50;;
55469;SDS011;41334;47.872;16.384;2022-10-31T10:18:41;6.15;;;3.05;;
55469;SDS011;41334;47.872;16.384;2022-10-31T10:21:47;5.03;;;2.58;;
55469;SDS011;41334;47.872;16.384;2022-10-31T10:37:25;6.03;;;2.90;;
55469;SDS011;41334;47.872;16.384;2022-10-31T10:40:29;5.05;;;2.65;;
55469;SDS011;41334;47.872;16.384;2022-10-31T10:43:33;3.97;;;2.75;;
55469;SDS011;41334;47.872;16.384;2022-10-31T10:46:41;4.28;;;2.55;;
55469;SDS011;41334;47.872;16.384;2022-10-31T10:50:02;4.43;;;2.97;;
55469;SDS011;41334;47.872;16.384;2022-10-31T10:56:36;4.63;;;2.95;;
55469;SDS011;41334;47.872;16.384;2022-10-31T10:59:40;7.47;;;3.45;;
55469;SDS011;41334;47.872;16.384;2022-10-31T11:02:42;4.28;;;2.60;;
55469;SDS011;41334;47.872;16.384;2022-10-31T11:05:50;4.15;;;2.55;;
55469;SDS011;41334;47.872;16.384;2022-10-31T11:08:52;4.80;;;2.67;;
55469;SDS011;41334;47.872;16.384;2022-10-31T11:11:54;6.18;;;2.90;;
55469;SDS011;41334;47.872;16.384;2022-10-31T11:15:02;5.20;;;3.17;;
55469;SDS011;41334;47.872;16.384;2022-10-31T11:18:12;6.28;;;3.25;;
55469;SDS011;41334;47.872;16.384;2022-10-31T11:21:24;4.18;;;2.45;;
55469;SDS011;41334;47.872;16.384;2022-10-31T11:24:27;5.22;;;2.88;;
55469;SDS011;41334;47.872;16.384;2022-10-31T11:27:29;4.63;;;2.60;;
55469;SDS011;41334;47.872;16.384;2022-10-31T11:30:35;6.13;;;3.00;;
55469;SDS011;41334;47.872;16.384;2022-10-31T11:36:39;6.22;;;3.30;;
55469;SDS011;41334;47.872;16.384;2022-10-31T11:39:44;5.88;;;2.58;;
55469;SDS011;41334;47.872;16.384;2022-10-31T11:42:47;4.38;;;2.55;;
55469;SDS011;41334;47.872;16.384;2022-10-31T11:45:49;5.50;;;3.05;;
55469;SDS011;41334;47.872;16.384;2022-10-31T11:48:52;6.05;;;3.13;;
55469;SDS011;41334;47.872;16.384;2022-10-31T11:51:56;5.90;;;3.08;;
55469;SDS011;41334;47.872;16.384;2022-10-31T11:55:13;6.78;;;3.13;;
55469;SDS011;41334;47.872;16.384;2022-10-31T11:58:22;7.22;;;3.55;;
55469;SDS011;41334;47.872;16.384;2022-10-31T12:01:26;6.50;;;2.72;;
55469;SDS011;41334;47.872;16.384;2022-10-31T12:04:33;9.55;;;3.33;;
55469;SDS011;41334;47.872;16.384;2022-10-31T12:07:35;5.20;;;2.78;;
55469;SDS011;41334;47.872;16.384;2022-10-31T12:10:51;6.30;;;3.05;;
55469;SDS011;41334;47.872;16.384;2022-10-31T12:17:21;5.13;;;3.17;;
55469;SDS011;41334;47.872;16.384;2022-10-31T12:20:49;8.70;;;3.63;;
55469;SDS011;41334;47.872;16.384;2022-10-31T12:27:04;7.80;;;3.90;;
55469;SDS011;41334;47.872;16.384;2022-10-31T12:30:14;8.88;;;3.70;;
55469;SDS011;41334;47.872;16.384;2022-10-31T12:39:36;7.18;;;3.70;;
55469;SDS011;41334;47.872;16.384;2022-10-31T12:46:00;8.07;;;4.47;;
55469;SDS011;41334;47.872;16.384;2022-10-31T12:55:40;16.90;;;4.15;;
55469;SDS011;41334;47.872;16.384;2022-10-31T13:05:30;6.97;;;4.18;;
55469;SDS011;41334;47.872;16.384;2022-10-31T13:08:40;11.23;;;4.35;;
55469;SDS011;41334;47.872;16.384;2022-10-31T13:12:05;9.82;;;4.55;;
55469;SDS011;41334;47.872;16.384;2022-10-31T13:15:16;13.02;;;4.70;;
55469;SDS011;41334;47.872;16.384;2022-10-31T13:18:25;6.65;;;3.42;;
55469;SDS011;41334;47.872;16.384;2022-10-31T13:21:35;6.32;;;4.18;;
55469;SDS011;41334;47.872;16.384;2022-10-31T13:24:42;12.77;;;4.35;;
55469;SDS011;41334;47.872;16.384;2022-10-31T13:27:51;11.02;;;5.20;;
55469;SDS011;41334;47.872;16.384;2022-10-31T13:30:54;12.13;;;6.20;;
55469;SDS011;41334;47.872;16.384;2022-10-31T13:33:57;16.17;;;4.85;;
55469;SDS011;41334;47.872;16.384;2022-10-31T13:37:09;10.30;;;4.40;;
55469;SDS011;41334;47.872;16.384;2022-10-31T13:52:35;8.95;;;4.50;;
55469;SDS011;41334;47.872;16.384;2022-10-31T13:55:40;10.32;;;4.97;;
55469;SDS011;41334;47.872;16.384;2022-10-31T13:58:53;7.32;;;4.53;;
55469;SDS011;41334;47.872;16.384;2022-10-31T14:01:57;9.15;;;4.60;;
55469;SDS011;41334;47.872;16.384;2022-10-31T14:05:02;8.55;;;4.72;;
55469;SDS011;41334;47.872;16.384;2022-10-31T14:08:05;9.98;;;4.97;;
55469;SDS011;41334;47.872;16.384;2022-10-31T14:11:24;9.18;;;4.30;;
55469;SDS011;41334;47.872;16.384;2022-10-31T14:14:39;9.82;;;5.38;;
55469;SDS011;41334;47.872;16.384;2022-10-31T14:17:55;9.10;;;5.15;;
55469;SDS011;41334;47.872;16.384;2022-10-31T14:20:57;9.98;;;4.75;;
55469;SDS011;41334;47.872;16.384;2022-10-31T14:23:59;11.98;;;5.15;;
55469;SDS011;41334;47.872;16.384;2022-10-31T14:27:04;10.88;;;4.53;;
55469;SDS011;41334;47.872;16.384;2022-10-31T14:30:25;8.88;;;5.28;;
55469;SDS011;41334;47.872;16.384;2022-10-31T14:33:28;7.90;;;4.47;;
55469;SDS011;41334;47.872;16.384;2022-10-31T14:36:39;9.23;;;5.43;;
55469;SDS011;41334;47.872;16.384;2022-10-31T14:42:54;11.88;;;5.20;;
55469;SDS011;41334;47.872;16.384;2022-10-31T14:52:19;8.80;;;5.15;;
55469;SDS011;41334;47.872;16.384;2022-10-31T14:55:21;9.77;;;5.38;;
55469;SDS011;41334;47.872;16.384;2022-10-31T14:58:24;14.98;;;5.18;;
55469;SDS011;41334;47.872;16.384;2022-10-31T15:01:27;9.40;;;4.30;;
55469;SDS011;41334;47.872;16.384;2022-10-31T15:04:30;11.32;;;5.68;;
55469;SDS011;41334;47.872;16.384;2022-10-31T15:07:33;10.88;;;4.75;;
55469;SDS011;41334;47.872;16.384;2022-10-31T15:10:38;11.20;;;6.28;;
55469;SDS011;41334;47.872;16.384;2022-10-31T15:13:41;9.27;;;5.07;;
55469;SDS011;41334;47.872;16.384;2022-10-31T15:16:43;11.00;;;4.72;;
55469;SDS011;41334;47.872;16.384;2022-10-31T15:19:45;6.35;;;3.97;;
55469;SDS011;41334;47.872;16.384;2022-10-31T15:22:47;8.23;;;4.40;;
55469;SDS011;41334;47.872;16.384;2022-10-31T15:25:49;10.98;;;5.57;;
55469;SDS011;41334;47.872;16.384;2022-10-31T15:35:25;12.88;;;5.90;;
55469;SDS011;41334;47.872;16.384;2022-10-31T15:38:27;9.68;;;5.10;;
55469;SDS011;41334;47.872;16.384;2022-10-31T15:44:32;8.30;;;4.97;;
55469;SDS011;41334;47.872;16.384;2022-10-31T15:47:34;6.00;;;3.60;;
55469;SDS011;41334;47.872;16.384;2022-10-31T15:50:37;6.57;;;3.90;;
55469;SDS011;41334;47.872;16.384;2022-10-31T15:53:48;10.10;;;4.80;;
55469;SDS011;41334;47.872;16.384;2022-10-31T15:56:50;7.97;;;4.35;;
55469;SDS011;41334;47.872;16.384;2022-10-31T15:59:53;8.10;;;4.25;;
55469;SDS011;41334;47.872;16.384;2022-10-31T16:06:19;8.77;;;3.70;;
55469;SDS011;41334;47.872;16.384;2022-10-31T16:09:22;7.20;;;3.83;;
55469;SDS011;41334;47.872;16.384;2022-10-31T16:12:25;10.43;;;5.15;;
55469;SDS011;41334;47.872;16.384;2022-10-31T16:15:29;9.85;;;3.60;;
55469;SDS011;41334;47.872;16.384;2022-10-31T16:18:34;8.32;;;4.70;;
55469;SDS011;41334;47.872;16.384;2022-10-31T16:21:38;5.13;;;3.15;;
55469;SDS011;41334;47.872;16.384;2022-10-31T16:24:48;7.57;;;3.72;;
55469;SDS011;41334;47.872;16.384;2022-10-31T16:27:51;8.10;;;4.53;;
55469;SDS011;41334;47.872;16.384;2022-10-31T16:30:55;6.85;;;4.05;;
55469;SDS011;41334;47.872;16.384;2022-10-31T16:34:14;8.88;;;4.63;;
55469;SDS011;41334;47.872;16.384;2022-10-31T16:37:15;8.27;;;4.18;;
55469;SDS011;41334;47.872;16.384;2022-10-31T16:40:17;9.75;;;3.92;;
55469;SDS011;41334;47.872;16.384;2022-10-31T16:43:20;9.10;;;4.07;;
55469;SDS011;41334;47.872;16.384;2022-10-31T16:46:22;7.15;;;4.07;;
55469;SDS011;41334;47.872;16.384;2022-10-31T16:49:24;8.05;;;4.35;;
55469;SDS011;41334;47.872;16.384;2022-10-31T16:52:26;5.03;;;3.05;;
55469;SDS011;41334;47.872;16.384;2022-10-31T16:55:28;7.05;;;3.55;;
55469;SDS011;41334;47.872;16.384;2022-10-31T16:58:32;8.27;;;4.75;;
55469;SDS011;41334;47.872;16.384;2022-10-31T17:01:34;9.45;;;4.47;;
55469;SDS011;41334;47.872;16.384;2022-10-31T17:04:36;9.68;;;4.93;;
55469;SDS011;41334;47.872;16.384;2022-10-31T17:07:38;8.02;;;4.13;;
55469;SDS011;41334;47.872;16.384;2022-10-31T17:10:40;8.57;;;5.00;;
55469;SDS011;41334;47.872;16.384;2022-10-31T17:13:42;6.28;;;3.92;;
55469;SDS011;41334;47.872;16.384;2022-10-31T17:16:43;5.63;;;2.97;;
55469;SDS011;41334;47.872;16.384;2022-10-31T17:19:45;6.25;;;4.05;;
55469;SDS011;41334;47.872;16.384;2022-10-31T17:22:47;7.20;;;3.85;;
55469;SDS011;41334;47.872;16.384;2022-10-31T17:25:48;7.40;;;4.82;;
55469;SDS011;41334;47.872;16.384;2022-10-31T17:28:50;6.07;;;3.42;;
55469;SDS011;41334;47.872;16.384;2022-10-31T17:31:52;5.93;;;3.42;;
55469;SDS011;41334;47.872;16.384;2022-10-31T17:34:53;6.10;;;3.10;;
55469;SDS011;41334;47.872;16.384;2022-10-31T17:37:55;9.27;;;3.38;;
55469;SDS011;41334;47.872;16.384;2022-10-31T17:40:57;6.05;;;3.15;;
55469;SDS011;41334;47.872;16.384;2022-10-31T17:43:58;8.48;;;4.05;;
55469;SDS011;41334;47.872;16.384;2022-10-31T17:47:00;6.20;;;3.28;;
55469;SDS011;41334;47.872;16.384;2022-10-31T17:50:02;7.28;;;4.03;;
55469;SDS011;41334;47.872;16.384;2022-10-31T17:53:04;7.53;;;3.55;;
55469;SDS011;41334;47.872;16.384;2022-10-31T17:56:06;7.90;;;3.67;;
55469;SDS011;41334;47.872;16.384;2022-10-31T17:59:08;6.03;;;3.28;;
55469;SDS011;41334;47.872;16.384;2022-10-31T18:02:10;6.57;;;2.83;;
55469;SDS011;41334;47.872;16.384;2022-10-31T18:05:12;7.05;;;3.80;;
55469;SDS011;41334;47.872;16.384;2022-10-31T18:08:15;6.85;;;3.65;;
55469;SDS011;41334;47.872;16.384;2022-10-31T18:11:18;6.13;;;3.58;;
55469;SDS011;41334;47.872;16.384;2022-10-31T18:14:20;7.90;;;3.72;;
55469;SDS011;41334;47.872;16.384;2022-10-31T18:17:22;7.68;;;2.83;;
55469;SDS011;41334;47.872;16.384;2022-10-31T18:20:24;6.70;;;3.53;;
55469;SDS011;41334;47.872;16.384;2022-10-31T18:23:25;5.88;;;2.63;;
55469;SDS011;41334;47.872;16.384;2022-10-31T18:26:27;5.30;;;3.10;;
55469;SDS011;41334;47.872;16.384;2022-10-31T18:29:29;7.90;;;3.50;;
55469;SDS011;41334;47.872;16.384;2022-10-31T18:32:30;5.63;;;2.97;;
55469;SDS011;41334;47.872;16.384;2022-10-31T18:35:34;5.68;;;2.85;;
55469;SDS011;41334;47.872;16.384;2022-10-31T18:38:36;4.53;;;2.70;;
55469;SDS011;41334;47.872;16.384;2022-10-31T18:41:38;7.20;;;3.00;;
55469;SDS011;41334;47.872;16.384;2022-10-31T18:44:40;6.00;;;2.55;;
55469;SDS011;41334;47.872;16.384;2022-10-31T18:47:41;4.80;;;2.65;;
55469;SDS011;41334;47.872;16.384;2022-10-31T18:50:43;7.03;;;3.45;;
55469;SDS011;41334;47.872;16.384;2022-10-31T18:53:48;4.30;;;2.33;;
55469;SDS011;41334;47.872;16.384;2022-10-31T18:56:50;3.83;;;2.53;;
55469;SDS011;41334;47.872;16.384;2022-10-31T18:59:52;4.70;;;2.95;;
55469;SDS011;41334;47.872;16.384;2022-10-31T19:02:54;4.68;;;2.88;;
55469;SDS011;41334;47.872;16.384;2022-10-31T19:05:57;5.88;;;2.88;;
55469;SDS011;41334;47.872;16.384;2022-10-31T19:08:59;4.93;;;2.28;;
55469;SDS011;41334;47.872;16.384;2022-10-31T19:12:03;3.58;;;2.40;;
55469;SDS011;41334;47.872;16.384;2022-10-31T19:15:07;6.68;;;2.78;;
55469;SDS011;41334;47.872;16.384;2022-10-31T19:18:09;4.88;;;2.80;;
55469;SDS011;41334;47.872;16.384;2022-10-31T19:21:12;7.22;;;2.63;;
55469;SDS011;41334;47.872;16.384;2022-10-31T19:24:14;5.28;;;2.83;;
55469;SDS011;41334;47.872;16.384;2022-10-31T19:27:16;5.53;;;2.90;;
55469;SDS011;41334;47.872;16.384;2022-10-31T19:30:20;1.60;;;0.98;;
55469;SDS011;41334;47.872;16.384;2022-10-31T19:33:22;4.72;;;2.55;;
55469;SDS011;41334;47.872;16.384;2022-10-31T19:36:30;4.75;;;2.38;;
55469;SDS011;41334;47.872;16.384;2022-10-31T19:39:32;2.45;;;1.38;;
55469;SDS011;41334;47.872;16.384;2022-10-31T19:42:43;6.13;;;3.22;;
55469;SDS011;41334;47.872;16.384;2022-10-31T19:45:52;1.75;;;0.52;;
55469;SDS011;41334;47.872;16.384;2022-10-31T19:48:54;5.82;;;3.17;;
55469;SDS011;41334;47.872;16.384;2022-10-31T19:51:55;5.47;;;2.20;;
55469;SDS011;41334;47.872;16.384;2022-10-31T19:54:57;8.13;;;3.08;;
55469;SDS011;41334;47.872;16.384;2022-10-31T19:57:58;5.28;;;2.60;;
55469;SDS011;41334;47.872;16.384;2022-10-31T20:01:09;5.43;;;2.38;;
55469;SDS011;41334;47.872;16.384;2022-10-31T20:04:12;5.43;;;2.80;;
55469;SDS011;41334;47.872;16.384;2022-10-31T20:07:14;6.38;;;3.15;;
55469;SDS011;41334;47.872;16.384;2022-10-31T20:10:15;4.15;;;2.35;;
55469;SDS011;41334;47.872;16.384;2022-10-31T20:13:17;7.32;;;3.65;;
55469;SDS011;41334;47.872;16.384;2022-10-31T20:16:19;7.43;;;3.72;;
55469;SDS011;41334;47.872;16.384;2022-10-31T20:19:20;6.35;;;3.30;;
55469;SDS011;41334;47.872;16.384;2022-10-31T20:22:22;8.77;;;3.83;;
55469;SDS011;41334;47.872;16.384;2022-10-31T20:25:24;4.13;;;2.65;;
55469;SDS011;41334;47.872;16.384;2022-10-31T20:28:26;9.05;;;3.75;;
55469;SDS011;41334;47.872;16.384;2022-10-31T20:31:30;10.57;;;4.20;;